sensor_id;sensor_type;location;lat;lon;timestamp;P1;durP1;ratioP1;P2;durP2;ratioP2
8871;SDS011;4472;52.092;9.820;2022-12-11T00:01:54;52.47;;;24.97;;
8871;SDS011;4472;52.092;9.820;2022-12-11T00:04:41;55.63;;;26.37;;
8871;SDS011;4472;52.092;9.820;2022-12-11T00:07:30;58.53;;;26.00;;
8871;SDS011;4472;52.092;9.820;2022-12-11T00:10:17;56.53;;;26.40;;
8871;SDS011;4472;52.092;9.820;2022-12-11T00:13:04;59.07;;;26.97;;
8871;SDS011;4472;52.092;9.820;2022-12-11T00:15:51;59.33;;;26.93;;
8871;SDS011;4472;52.092;9.820;2022-12-11T00:18:38;57.83;;;28.27;;
8871;SDS011;4472;52.092;9.820;2022-12-11T00:21:26;59.00;;;28.43;;
8871;SDS011;4472;52.092;9.820;2022-12-11T00:24:14;59.07;;;27.33;;
8871;SDS011;4472;52.092;9.820;2022-12-11T00:27:02;61.97;;;28.57;;
8871;SDS011;4472;52.092;9.820;2022-12-11T00:29:49;62.07;;;27.20;;
8871;SDS011;4472;52.092;9.820;2022-12-11T00:32:36;56.70;;;26.57;;
8871;SDS011;4472;52.092;9.820;2022-12-11T00:35:23;52.47;;;24.70;;
8871;SDS011;4472;52.092;9.820;2022-12-11T00:38:13;60.83;;;26.97;;
8871;SDS011;4472;52.092;9.820;2022-12-11T00:41:03;57.23;;;26.27;;
8871;SDS011;4472;52.092;9.820;2022-12-11T00:43:50;55.50;;;26.13;;
8871;SDS011;4472;52.092;9.820;2022-12-11T00:46:37;61.33;;;27.37;;
8871;SDS011;4472;52.092;9.820;2022-12-11T00:49:24;66.73;;;30.00;;
8871;SDS011;4472;52.092;9.820;2022-12-11T00:52:12;74.50;;;31.77;;
8871;SDS011;4472;52.092;9.820;2022-12-11T00:55:01;67.57;;;28.57;;
8871;SDS011;4472;52.092;9.820;2022-12-11T00:57:51;76.67;;;32.60;;
8871;SDS011;4472;52.092;9.820;2022-12-11T01:00:38;58.30;;;27.03;;
8871;SDS011;4472;52.092;9.820;2022-12-11T01:03:26;55.07;;;26.77;;
8871;SDS011;4472;52.092;9.820;2022-12-11T01:06:14;56.20;;;25.80;;
8871;SDS011;4472;52.092;9.820;2022-12-11T01:09:04;58.77;;;26.80;;
8871;SDS011;4472;52.092;9.820;2022-12-11T01:12:08;53.63;;;25.50;;
8871;SDS011;4472;52.092;9.820;2022-12-11T01:14:57;57.20;;;26.97;;
8871;SDS011;4472;52.092;9.820;2022-12-11T01:17:44;55.93;;;25.87;;
8871;SDS011;4472;52.092;9.820;2022-12-11T01:20:32;53.73;;;25.80;;
8871;SDS011;4472;52.092;9.820;2022-12-11T01:23:19;53.87;;;25.27;;
8871;SDS011;4472;52.092;9.820;2022-12-11T01:26:07;59.30;;;27.33;;
8871;SDS011;4472;52.092;9.820;2022-12-11T01:28:55;55.13;;;25.40;;
8871;SDS011;4472;52.092;9.820;2022-12-11T01:31:44;49.93;;;25.27;;
8871;SDS011;4472;52.092;9.820;2022-12-11T01:34:31;53.23;;;26.33;;
8871;SDS011;4472;52.092;9.820;2022-12-11T01:37:18;53.37;;;25.80;;
8871;SDS011;4472;52.092;9.820;2022-12-11T01:40:06;54.10;;;25.90;;
8871;SDS011;4472;52.092;9.820;2022-12-11T01:42:55;50.87;;;24.50;;
8871;SDS011;4472;52.092;9.820;2022-12-11T01:45:43;54.20;;;25.47;;
8871;SDS011;4472;52.092;9.820;2022-12-11T01:48:33;55.37;;;27.13;;
8871;SDS011;4472;52.092;9.820;2022-12-11T01:51:20;53.63;;;25.73;;
8871;SDS011;4472;52.092;9.820;2022-12-11T01:54:10;50.23;;;25.40;;
8871;SDS011;4472;52.092;9.820;2022-12-11T01:56:59;54.63;;;24.93;;
8871;SDS011;4472;52.092;9.820;2022-12-11T01:59:49;50.90;;;24.20;;
8871;SDS011;4472;52.092;9.820;2022-12-11T02:02:37;52.00;;;25.50;;
8871;SDS011;4472;52.092;9.820;2022-12-11T02:05:25;52.07;;;25.57;;
8871;SDS011;4472;52.092;9.820;2022-12-11T02:08:13;48.40;;;23.73;;
8871;SDS011;4472;52.092;9.820;2022-12-11T02:11:03;56.73;;;25.50;;
8871;SDS011;4472;52.092;9.820;2022-12-11T02:13:57;56.70;;;26.20;;
8871;SDS011;4472;52.092;9.820;2022-12-11T02:16:52;52.40;;;24.97;;
8871;SDS011;4472;52.092;9.820;2022-12-11T02:19:45;47.73;;;23.60;;
8871;SDS011;4472;52.092;9.820;2022-12-11T02:22:52;53.00;;;24.10;;
8871;SDS011;4472;52.092;9.820;2022-12-11T02:25:51;46.73;;;22.23;;
8871;SDS011;4472;52.092;9.820;2022-12-11T02:28:46;45.73;;;22.83;;
8871;SDS011;4472;52.092;9.820;2022-12-11T02:31:37;51.53;;;24.37;;
8871;SDS011;4472;52.092;9.820;2022-12-11T02:34:27;52.47;;;23.60;;
8871;SDS011;4472;52.092;9.820;2022-12-11T02:37:20;53.37;;;24.60;;
8871;SDS011;4472;52.092;9.820;2022-12-11T02:40:11;53.57;;;23.93;;
8871;SDS011;4472;52.092;9.820;2022-12-11T02:43:01;53.47;;;24.10;;
8871;SDS011;4472;52.092;9.820;2022-12-11T02:45:53;54.33;;;24.20;;
8871;SDS011;4472;52.092;9.820;2022-12-11T02:48:41;54.30;;;24.87;;
8871;SDS011;4472;52.092;9.820;2022-12-11T02:51:30;51.73;;;24.27;;
8871;SDS011;4472;52.092;9.820;2022-12-11T02:54:22;57.07;;;24.10;;
8871;SDS011;4472;52.092;9.820;2022-12-11T02:57:13;48.77;;;23.80;;
8871;SDS011;4472;52.092;9.820;2022-12-11T03:00:04;47.83;;;23.90;;
8871;SDS011;4472;52.092;9.820;2022-12-11T03:02:55;52.23;;;23.33;;
8871;SDS011;4472;52.092;9.820;2022-12-11T03:05:43;50.37;;;24.40;;
8871;SDS011;4472;52.092;9.820;2022-12-11T03:08:31;51.83;;;25.40;;
8871;SDS011;4472;52.092;9.820;2022-12-11T03:11:21;51.27;;;24.37;;
8871;SDS011;4472;52.092;9.820;2022-12-11T03:14:08;48.97;;;22.87;;
8871;SDS011;4472;52.092;9.820;2022-12-11T03:16:57;50.17;;;24.03;;
8871;SDS011;4472;52.092;9.820;2022-12-11T03:19:54;56.93;;;24.87;;
8871;SDS011;4472;52.092;9.820;2022-12-11T03:22:50;54.70;;;24.13;;
8871;SDS011;4472;52.092;9.820;2022-12-11T03:25:43;47.07;;;23.13;;
8871;SDS011;4472;52.092;9.820;2022-12-11T03:28:41;46.20;;;23.27;;
8871;SDS011;4472;52.092;9.820;2022-12-11T03:31:33;49.63;;;22.67;;
8871;SDS011;4472;52.092;9.820;2022-12-11T03:34:26;47.83;;;22.83;;
8871;SDS011;4472;52.092;9.820;2022-12-11T03:37:18;44.30;;;22.87;;
8871;SDS011;4472;52.092;9.820;2022-12-11T03:40:09;44.30;;;22.70;;
8871;SDS011;4472;52.092;9.820;2022-12-11T03:43:00;43.80;;;22.03;;
8871;SDS011;4472;52.092;9.820;2022-12-11T03:45:49;49.73;;;21.97;;
8871;SDS011;4472;52.092;9.820;2022-12-11T03:48:39;48.50;;;22.23;;
8871;SDS011;4472;52.092;9.820;2022-12-11T03:51:28;44.00;;;21.57;;
8871;SDS011;4472;52.092;9.820;2022-12-11T03:54:19;45.03;;;21.30;;
8871;SDS011;4472;52.092;9.820;2022-12-11T03:57:06;44.70;;;22.07;;
8871;SDS011;4472;52.092;9.820;2022-12-11T03:59:57;44.60;;;22.20;;
8871;SDS011;4472;52.092;9.820;2022-12-11T04:02:44;45.63;;;22.67;;
8871;SDS011;4472;52.092;9.820;2022-12-11T04:05:54;44.57;;;21.80;;
8871;SDS011;4472;52.092;9.820;2022-12-11T04:08:41;46.13;;;22.33;;
8871;SDS011;4472;52.092;9.820;2022-12-11T04:11:30;42.23;;;22.33;;
8871;SDS011;4472;52.092;9.820;2022-12-11T04:14:20;42.13;;;22.37;;
8871;SDS011;4472;52.092;9.820;2022-12-11T04:17:24;42.40;;;21.70;;
8871;SDS011;4472;52.092;9.820;2022-12-11T04:20:29;43.80;;;22.83;;
8871;SDS011;4472;52.092;9.820;2022-12-11T04:23:33;47.83;;;23.90;;
8871;SDS011;4472;52.092;9.820;2022-12-11T04:26:39;45.43;;;23.60;;
8871;SDS011;4472;52.092;9.820;2022-12-11T04:29:27;43.90;;;22.23;;
8871;SDS011;4472;52.092;9.820;2022-12-11T04:32:14;45.90;;;23.17;;
8871;SDS011;4472;52.092;9.820;2022-12-11T04:35:01;42.07;;;21.90;;
8871;SDS011;4472;52.092;9.820;2022-12-11T04:37:48;46.77;;;22.53;;
8871;SDS011;4472;52.092;9.820;2022-12-11T04:40:37;48.40;;;22.87;;
8871;SDS011;4472;52.092;9.820;2022-12-11T04:43:25;54.10;;;27.30;;
8871;SDS011;4472;52.092;9.820;2022-12-11T04:46:14;46.10;;;23.87;;
8871;SDS011;4472;52.092;9.820;2022-12-11T04:49:03;48.17;;;23.80;;
8871;SDS011;4472;52.092;9.820;2022-12-11T04:51:50;45.37;;;22.77;;
8871;SDS011;4472;52.092;9.820;2022-12-11T04:54:37;43.70;;;21.83;;
8871;SDS011;4472;52.092;9.820;2022-12-11T04:57:24;41.93;;;21.37;;
8871;SDS011;4472;52.092;9.820;2022-12-11T05:00:14;38.73;;;21.07;;
8871;SDS011;4472;52.092;9.820;2022-12-11T05:03:01;44.10;;;20.23;;
8871;SDS011;4472;52.092;9.820;2022-12-11T05:05:49;42.47;;;21.60;;
8871;SDS011;4472;52.092;9.820;2022-12-11T05:08:38;68.97;;;33.40;;
8871;SDS011;4472;52.092;9.820;2022-12-11T05:11:27;48.00;;;23.50;;
8871;SDS011;4472;52.092;9.820;2022-12-11T05:14:14;46.13;;;22.67;;
8871;SDS011;4472;52.092;9.820;2022-12-11T05:17:02;38.53;;;19.77;;
8871;SDS011;4472;52.092;9.820;2022-12-11T05:19:50;48.10;;;23.10;;
8871;SDS011;4472;52.092;9.820;2022-12-11T05:22:37;42.60;;;22.30;;
8871;SDS011;4472;52.092;9.820;2022-12-11T05:25:25;43.10;;;21.93;;
8871;SDS011;4472;52.092;9.820;2022-12-11T05:28:12;41.73;;;21.10;;
8871;SDS011;4472;52.092;9.820;2022-12-11T05:31:02;43.20;;;21.00;;
8871;SDS011;4472;52.092;9.820;2022-12-11T05:33:52;39.53;;;20.93;;
8871;SDS011;4472;52.092;9.820;2022-12-11T05:36:40;47.33;;;23.30;;
8871;SDS011;4472;52.092;9.820;2022-12-11T05:39:27;41.10;;;21.07;;
8871;SDS011;4472;52.092;9.820;2022-12-11T05:42:14;45.13;;;21.10;;
8871;SDS011;4472;52.092;9.820;2022-12-11T05:45:01;40.60;;;20.43;;
8871;SDS011;4472;52.092;9.820;2022-12-11T05:47:49;44.77;;;21.70;;
8871;SDS011;4472;52.092;9.820;2022-12-11T05:50:37;38.87;;;20.37;;
8871;SDS011;4472;52.092;9.820;2022-12-11T05:53:24;42.90;;;20.03;;
8871;SDS011;4472;52.092;9.820;2022-12-11T05:56:13;43.03;;;21.70;;
8871;SDS011;4472;52.092;9.820;2022-12-11T05:59:03;41.90;;;21.10;;
8871;SDS011;4472;52.092;9.820;2022-12-11T06:01:52;43.43;;;22.33;;
8871;SDS011;4472;52.092;9.820;2022-12-11T06:04:39;46.60;;;22.97;;
8871;SDS011;4472;52.092;9.820;2022-12-11T06:07:27;43.73;;;21.93;;
8871;SDS011;4472;52.092;9.820;2022-12-11T06:10:15;47.27;;;23.23;;
8871;SDS011;4472;52.092;9.820;2022-12-11T06:13:02;45.40;;;23.07;;
8871;SDS011;4472;52.092;9.820;2022-12-11T06:15:49;46.43;;;22.80;;
8871;SDS011;4472;52.092;9.820;2022-12-11T06:18:37;50.33;;;24.80;;
8871;SDS011;4472;52.092;9.820;2022-12-11T06:21:26;49.17;;;25.23;;
8871;SDS011;4472;52.092;9.820;2022-12-11T06:24:16;50.73;;;25.03;;
8871;SDS011;4472;52.092;9.820;2022-12-11T06:27:03;50.63;;;25.83;;
8871;SDS011;4472;52.092;9.820;2022-12-11T06:29:50;50.20;;;24.47;;
8871;SDS011;4472;52.092;9.820;2022-12-11T06:32:37;51.63;;;25.87;;
8871;SDS011;4472;52.092;9.820;2022-12-11T06:35:24;49.17;;;26.07;;
8871;SDS011;4472;52.092;9.820;2022-12-11T06:38:12;52.70;;;26.17;;
8871;SDS011;4472;52.092;9.820;2022-12-11T06:41:01;52.87;;;25.60;;
8871;SDS011;4472;52.092;9.820;2022-12-11T06:43:50;51.60;;;24.93;;
8871;SDS011;4472;52.092;9.820;2022-12-11T06:46:37;50.97;;;26.23;;
8871;SDS011;4472;52.092;9.820;2022-12-11T06:49:24;52.20;;;26.10;;
8871;SDS011;4472;52.092;9.820;2022-12-11T06:52:11;49.30;;;25.93;;
8871;SDS011;4472;52.092;9.820;2022-12-11T06:54:58;50.00;;;25.17;;
8871;SDS011;4472;52.092;9.820;2022-12-11T06:57:47;49.63;;;25.40;;
8871;SDS011;4472;52.092;9.820;2022-12-11T07:00:34;49.13;;;24.07;;
8871;SDS011;4472;52.092;9.820;2022-12-11T07:03:22;46.83;;;24.83;;
8871;SDS011;4472;52.092;9.820;2022-12-11T07:06:09;51.23;;;26.13;;
8871;SDS011;4472;52.092;9.820;2022-12-11T07:08:57;51.27;;;24.80;;
8871;SDS011;4472;52.092;9.820;2022-12-11T07:11:44;50.43;;;25.70;;
8871;SDS011;4472;52.092;9.820;2022-12-11T07:14:33;51.30;;;26.73;;
8871;SDS011;4472;52.092;9.820;2022-12-11T07:17:20;52.67;;;26.50;;
8871;SDS011;4472;52.092;9.820;2022-12-11T07:20:08;53.83;;;25.87;;
8871;SDS011;4472;52.092;9.820;2022-12-11T07:22:55;49.67;;;25.87;;
8871;SDS011;4472;52.092;9.820;2022-12-11T07:25:42;53.20;;;28.60;;
8871;SDS011;4472;52.092;9.820;2022-12-11T07:28:30;56.00;;;29.03;;
8871;SDS011;4472;52.092;9.820;2022-12-11T07:31:19;56.73;;;28.80;;
8871;SDS011;4472;52.092;9.820;2022-12-11T07:34:10;56.10;;;28.30;;
8871;SDS011;4472;52.092;9.820;2022-12-11T07:36:58;55.67;;;26.60;;
8871;SDS011;4472;52.092;9.820;2022-12-11T07:39:45;48.70;;;24.87;;
8871;SDS011;4472;52.092;9.820;2022-12-11T07:42:33;51.10;;;25.30;;
8871;SDS011;4472;52.092;9.820;2022-12-11T07:45:20;49.77;;;24.67;;
8871;SDS011;4472;52.092;9.820;2022-12-11T07:48:09;42.73;;;22.63;;
8871;SDS011;4472;52.092;9.820;2022-12-11T07:51:06;47.40;;;23.43;;
8871;SDS011;4472;52.092;9.820;2022-12-11T07:53:54;43.37;;;22.60;;
8871;SDS011;4472;52.092;9.820;2022-12-11T07:56:42;45.27;;;23.10;;
8871;SDS011;4472;52.092;9.820;2022-12-11T07:59:30;46.07;;;22.13;;
8871;SDS011;4472;52.092;9.820;2022-12-11T08:02:17;47.73;;;24.37;;
8871;SDS011;4472;52.092;9.820;2022-12-11T08:05:07;45.83;;;23.37;;
8871;SDS011;4472;52.092;9.820;2022-12-11T08:07:54;43.37;;;22.60;;
8871;SDS011;4472;52.092;9.820;2022-12-11T08:10:41;42.97;;;22.83;;
8871;SDS011;4472;52.092;9.820;2022-12-11T08:13:29;44.87;;;24.23;;
8871;SDS011;4472;52.092;9.820;2022-12-11T08:16:16;42.97;;;21.57;;
8871;SDS011;4472;52.092;9.820;2022-12-11T08:19:04;43.30;;;22.70;;
8871;SDS011;4472;52.092;9.820;2022-12-11T08:21:53;42.63;;;21.43;;
8871;SDS011;4472;52.092;9.820;2022-12-11T08:24:40;40.50;;;22.23;;
8871;SDS011;4472;52.092;9.820;2022-12-11T08:27:27;43.87;;;22.37;;
8871;SDS011;4472;52.092;9.820;2022-12-11T08:30:14;71.67;;;34.73;;
8871;SDS011;4472;52.092;9.820;2022-12-11T08:33:02;58.53;;;30.33;;
8871;SDS011;4472;52.092;9.820;2022-12-11T08:35:49;51.70;;;25.90;;
8871;SDS011;4472;52.092;9.820;2022-12-11T08:38:37;60.23;;;32.20;;
8871;SDS011;4472;52.092;9.820;2022-12-11T08:41:25;57.60;;;29.50;;
8871;SDS011;4472;52.092;9.820;2022-12-11T08:44:14;44.97;;;24.27;;
8871;SDS011;4472;52.092;9.820;2022-12-11T08:47:01;49.17;;;28.10;;
8871;SDS011;4472;52.092;9.820;2022-12-11T08:49:48;45.23;;;24.83;;
8871;SDS011;4472;52.092;9.820;2022-12-11T08:52:35;45.07;;;26.07;;
8871;SDS011;4472;52.092;9.820;2022-12-11T08:55:24;45.03;;;26.40;;
8871;SDS011;4472;52.092;9.820;2022-12-11T08:58:11;44.53;;;23.97;;
8871;SDS011;4472;52.092;9.820;2022-12-11T09:00:58;43.03;;;22.60;;
8871;SDS011;4472;52.092;9.820;2022-12-11T09:03:46;41.30;;;22.60;;
8871;SDS011;4472;52.092;9.820;2022-12-11T09:06:33;43.93;;;24.03;;
8871;SDS011;4472;52.092;9.820;2022-12-11T09:09:20;43.20;;;23.47;;
8871;SDS011;4472;52.092;9.820;2022-12-11T09:12:09;42.93;;;24.07;;
8871;SDS011;4472;52.092;9.820;2022-12-11T09:14:56;41.97;;;22.33;;
8871;SDS011;4472;52.092;9.820;2022-12-11T09:17:43;42.20;;;23.23;;
8871;SDS011;4472;52.092;9.820;2022-12-11T09:20:30;43.93;;;22.77;;
8871;SDS011;4472;52.092;9.820;2022-12-11T09:23:17;41.20;;;22.23;;
8871;SDS011;4472;52.092;9.820;2022-12-11T09:26:05;42.03;;;22.97;;
8871;SDS011;4472;52.092;9.820;2022-12-11T09:28:57;39.33;;;21.23;;
8871;SDS011;4472;52.092;9.820;2022-12-11T09:31:44;43.57;;;22.43;;
8871;SDS011;4472;52.092;9.820;2022-12-11T09:34:33;39.50;;;22.30;;
8871;SDS011;4472;52.092;9.820;2022-12-11T09:37:20;44.03;;;23.80;;
8871;SDS011;4472;52.092;9.820;2022-12-11T09:40:08;42.13;;;22.53;;
8871;SDS011;4472;52.092;9.820;2022-12-11T09:42:58;41.70;;;22.50;;
8871;SDS011;4472;52.092;9.820;2022-12-11T09:45:53;43.57;;;23.10;;
8871;SDS011;4472;52.092;9.820;2022-12-11T09:48:40;44.07;;;23.80;;
8871;SDS011;4472;52.092;9.820;2022-12-11T09:51:31;42.97;;;23.43;;
8871;SDS011;4472;52.092;9.820;2022-12-11T09:54:24;39.13;;;21.30;;
8871;SDS011;4472;52.092;9.820;2022-12-11T09:57:15;41.07;;;21.83;;
8871;SDS011;4472;52.092;9.820;2022-12-11T10:00:16;40.23;;;22.80;;
8871;SDS011;4472;52.092;9.820;2022-12-11T10:06:27;41.97;;;23.07;;
8871;SDS011;4472;52.092;9.820;2022-12-11T10:09:20;42.13;;;23.00;;
8871;SDS011;4472;52.092;9.820;2022-12-11T10:12:20;37.50;;;21.00;;
8871;SDS011;4472;52.092;9.820;2022-12-11T10:15:21;42.67;;;22.67;;
8871;SDS011;4472;52.092;9.820;2022-12-11T10:18:20;45.20;;;26.00;;
8871;SDS011;4472;52.092;9.820;2022-12-11T10:21:10;41.67;;;22.73;;
8871;SDS011;4472;52.092;9.820;2022-12-11T10:24:01;39.93;;;21.40;;
8871;SDS011;4472;52.092;9.820;2022-12-11T10:26:55;39.80;;;22.63;;
8871;SDS011;4472;52.092;9.820;2022-12-11T10:29:46;42.20;;;22.30;;
8871;SDS011;4472;52.092;9.820;2022-12-11T10:32:39;41.67;;;23.03;;
8871;SDS011;4472;52.092;9.820;2022-12-11T10:35:35;41.23;;;23.90;;
8871;SDS011;4472;52.092;9.820;2022-12-11T10:38:26;38.73;;;22.80;;
8871;SDS011;4472;52.092;9.820;2022-12-11T10:41:18;41.90;;;22.03;;
8871;SDS011;4472;52.092;9.820;2022-12-11T10:44:15;42.97;;;23.33;;
8871;SDS011;4472;52.092;9.820;2022-12-11T10:47:05;45.13;;;23.73;;
8871;SDS011;4472;52.092;9.820;2022-12-11T10:49:56;41.20;;;23.40;;
8871;SDS011;4472;52.092;9.820;2022-12-11T10:52:44;43.27;;;23.67;;
8871;SDS011;4472;52.092;9.820;2022-12-11T10:55:33;42.13;;;23.03;;
8871;SDS011;4472;52.092;9.820;2022-12-11T10:58:31;42.93;;;23.67;;
8871;SDS011;4472;52.092;9.820;2022-12-11T11:01:21;46.27;;;24.90;;
8871;SDS011;4472;52.092;9.820;2022-12-11T11:04:13;42.87;;;23.70;;
8871;SDS011;4472;52.092;9.820;2022-12-11T11:07:10;36.07;;;20.30;;
8871;SDS011;4472;52.092;9.820;2022-12-11T11:10:03;37.17;;;20.73;;
8871;SDS011;4472;52.092;9.820;2022-12-11T11:13:00;42.43;;;21.87;;
8871;SDS011;4472;52.092;9.820;2022-12-11T11:15:49;40.93;;;22.20;;
8871;SDS011;4472;52.092;9.820;2022-12-11T11:18:48;44.97;;;23.10;;
8871;SDS011;4472;52.092;9.820;2022-12-11T11:21:45;39.23;;;22.47;;
8871;SDS011;4472;52.092;9.820;2022-12-11T11:24:35;38.50;;;22.17;;
8871;SDS011;4472;52.092;9.820;2022-12-11T11:27:27;37.30;;;20.47;;
8871;SDS011;4472;52.092;9.820;2022-12-11T11:30:18;36.93;;;21.23;;
8871;SDS011;4472;52.092;9.820;2022-12-11T11:33:11;36.73;;;20.00;;
8871;SDS011;4472;52.092;9.820;2022-12-11T11:36:02;33.33;;;19.70;;
8871;SDS011;4472;52.092;9.820;2022-12-11T11:38:58;35.70;;;19.53;;
8871;SDS011;4472;52.092;9.820;2022-12-11T11:41:51;34.10;;;20.00;;
8871;SDS011;4472;52.092;9.820;2022-12-11T11:44:45;36.30;;;20.23;;
8871;SDS011;4472;52.092;9.820;2022-12-11T11:47:39;38.17;;;21.93;;
8871;SDS011;4472;52.092;9.820;2022-12-11T11:50:36;40.10;;;22.23;;
8871;SDS011;4472;52.092;9.820;2022-12-11T11:53:30;39.47;;;21.23;;
8871;SDS011;4472;52.092;9.820;2022-12-11T11:56:22;34.67;;;20.30;;
8871;SDS011;4472;52.092;9.820;2022-12-11T11:59:13;37.07;;;20.17;;
8871;SDS011;4472;52.092;9.820;2022-12-11T12:02:12;36.20;;;20.53;;
8871;SDS011;4472;52.092;9.820;2022-12-11T12:05:01;32.60;;;18.10;;
8871;SDS011;4472;52.092;9.820;2022-12-11T12:07:51;38.53;;;20.43;;
8871;SDS011;4472;52.092;9.820;2022-12-11T12:10:50;41.13;;;21.67;;
8871;SDS011;4472;52.092;9.820;2022-12-11T12:13:47;34.57;;;18.57;;
8871;SDS011;4472;52.092;9.820;2022-12-11T12:16:44;35.13;;;21.23;;
8871;SDS011;4472;52.092;9.820;2022-12-11T12:19:45;34.87;;;19.97;;
8871;SDS011;4472;52.092;9.820;2022-12-11T12:22:43;38.77;;;20.60;;
8871;SDS011;4472;52.092;9.820;2022-12-11T12:25:41;40.33;;;21.07;;
8871;SDS011;4472;52.092;9.820;2022-12-11T12:28:31;39.23;;;21.83;;
8871;SDS011;4472;52.092;9.820;2022-12-11T12:31:36;40.40;;;21.63;;
8871;SDS011;4472;52.092;9.820;2022-12-11T12:34:39;42.30;;;21.20;;
8871;SDS011;4472;52.092;9.820;2022-12-11T12:37:53;39.27;;;20.20;;
8871;SDS011;4472;52.092;9.820;2022-12-11T12:40:47;39.20;;;20.93;;
8871;SDS011;4472;52.092;9.820;2022-12-11T12:43:51;42.73;;;21.30;;
8871;SDS011;4472;52.092;9.820;2022-12-11T12:46:57;37.53;;;21.33;;
8871;SDS011;4472;52.092;9.820;2022-12-11T12:49:48;39.63;;;20.73;;
8871;SDS011;4472;52.092;9.820;2022-12-11T12:52:38;38.27;;;22.17;;
8871;SDS011;4472;52.092;9.820;2022-12-11T12:55:28;44.20;;;23.87;;
8871;SDS011;4472;52.092;9.820;2022-12-11T12:58:27;43.77;;;23.87;;
8871;SDS011;4472;52.092;9.820;2022-12-11T13:01:15;46.10;;;23.20;;
8871;SDS011;4472;52.092;9.820;2022-12-11T13:04:05;40.67;;;22.53;;
8871;SDS011;4472;52.092;9.820;2022-12-11T13:06:52;41.80;;;22.73;;
8871;SDS011;4472;52.092;9.820;2022-12-11T13:09:41;43.33;;;21.80;;
8871;SDS011;4472;52.092;9.820;2022-12-11T13:12:31;41.93;;;21.47;;
8871;SDS011;4472;52.092;9.820;2022-12-11T13:15:28;39.73;;;21.30;;
8871;SDS011;4472;52.092;9.820;2022-12-11T13:18:29;39.40;;;21.07;;
8871;SDS011;4472;52.092;9.820;2022-12-11T13:21:27;40.03;;;20.80;;
8871;SDS011;4472;52.092;9.820;2022-12-11T13:24:16;48.17;;;24.37;;
8871;SDS011;4472;52.092;9.820;2022-12-11T13:27:21;44.17;;;25.13;;
8871;SDS011;4472;52.092;9.820;2022-12-11T13:30:19;49.30;;;26.83;;
8871;SDS011;4472;52.092;9.820;2022-12-11T13:33:13;49.27;;;26.67;;
8871;SDS011;4472;52.092;9.820;2022-12-11T13:36:17;43.97;;;23.83;;
8871;SDS011;4472;52.092;9.820;2022-12-11T13:39:15;42.63;;;22.97;;
8871;SDS011;4472;52.092;9.820;2022-12-11T13:42:04;45.30;;;25.90;;
8871;SDS011;4472;52.092;9.820;2022-12-11T13:44:53;53.47;;;28.77;;
8871;SDS011;4472;52.092;9.820;2022-12-11T13:47:42;40.07;;;22.63;;
8871;SDS011;4472;52.092;9.820;2022-12-11T13:50:31;41.37;;;23.20;;
8871;SDS011;4472;52.092;9.820;2022-12-11T13:53:21;39.33;;;19.07;;
8871;SDS011;4472;52.092;9.820;2022-12-11T13:56:12;34.47;;;18.93;;
8871;SDS011;4472;52.092;9.820;2022-12-11T13:59:02;32.73;;;17.90;;
8871;SDS011;4472;52.092;9.820;2022-12-11T14:01:50;32.57;;;16.90;;
8871;SDS011;4472;52.092;9.820;2022-12-11T14:04:42;29.30;;;16.47;;
8871;SDS011;4472;52.092;9.820;2022-12-11T14:07:31;29.43;;;16.50;;
8871;SDS011;4472;52.092;9.820;2022-12-11T14:10:20;29.23;;;16.00;;
8871;SDS011;4472;52.092;9.820;2022-12-11T14:13:13;31.30;;;17.30;;
8871;SDS011;4472;52.092;9.820;2022-12-11T14:16:05;31.27;;;18.40;;
8871;SDS011;4472;52.092;9.820;2022-12-11T14:18:53;32.40;;;17.70;;
8871;SDS011;4472;52.092;9.820;2022-12-11T14:21:57;31.47;;;17.87;;
8871;SDS011;4472;52.092;9.820;2022-12-11T14:24:49;34.10;;;17.10;;
8871;SDS011;4472;52.092;9.820;2022-12-11T14:27:45;30.53;;;16.17;;
8871;SDS011;4472;52.092;9.820;2022-12-11T14:30:34;45.60;;;24.90;;
8871;SDS011;4472;52.092;9.820;2022-12-11T14:33:24;37.47;;;20.03;;
8871;SDS011;4472;52.092;9.820;2022-12-11T14:36:15;53.57;;;28.80;;
8871;SDS011;4472;52.092;9.820;2022-12-11T14:39:05;51.47;;;29.00;;
8871;SDS011;4472;52.092;9.820;2022-12-11T14:41:59;45.43;;;27.23;;
8871;SDS011;4472;52.092;9.820;2022-12-11T14:44:51;45.80;;;25.80;;
8871;SDS011;4472;52.092;9.820;2022-12-11T14:47:41;41.47;;;22.30;;
8871;SDS011;4472;52.092;9.820;2022-12-11T14:50:29;36.60;;;19.50;;
8871;SDS011;4472;52.092;9.820;2022-12-11T14:53:23;34.70;;;19.37;;
8871;SDS011;4472;52.092;9.820;2022-12-11T14:56:16;32.10;;;16.57;;
8871;SDS011;4472;52.092;9.820;2022-12-11T14:59:06;26.93;;;16.53;;
8871;SDS011;4472;52.092;9.820;2022-12-11T15:02:18;29.27;;;14.50;;
8871;SDS011;4472;52.092;9.820;2022-12-11T15:05:12;24.53;;;13.97;;
8871;SDS011;4472;52.092;9.820;2022-12-11T15:08:14;24.03;;;14.77;;
8871;SDS011;4472;52.092;9.820;2022-12-11T15:11:09;23.87;;;14.53;;
8871;SDS011;4472;52.092;9.820;2022-12-11T15:13:59;26.73;;;14.07;;
8871;SDS011;4472;52.092;9.820;2022-12-11T15:16:49;28.30;;;14.37;;
8871;SDS011;4472;52.092;9.820;2022-12-11T15:19:38;28.33;;;15.13;;
8871;SDS011;4472;52.092;9.820;2022-12-11T15:22:26;31.03;;;16.07;;
8871;SDS011;4472;52.092;9.820;2022-12-11T15:25:18;94.70;;;36.83;;
8871;SDS011;4472;52.092;9.820;2022-12-11T15:28:21;39.33;;;20.37;;
8871;SDS011;4472;52.092;9.820;2022-12-11T15:31:24;36.53;;;19.80;;
8871;SDS011;4472;52.092;9.820;2022-12-11T15:34:20;28.73;;;15.60;;
8871;SDS011;4472;52.092;9.820;2022-12-11T15:37:15;29.67;;;15.47;;
8871;SDS011;4472;52.092;9.820;2022-12-11T15:40:07;30.13;;;16.60;;
8871;SDS011;4472;52.092;9.820;2022-12-11T15:42:56;32.10;;;17.13;;
8871;SDS011;4472;52.092;9.820;2022-12-11T15:45:46;29.47;;;17.00;;
8871;SDS011;4472;52.092;9.820;2022-12-11T15:48:34;32.37;;;18.23;;
8871;SDS011;4472;52.092;9.820;2022-12-11T15:51:22;31.27;;;15.97;;
8871;SDS011;4472;52.092;9.820;2022-12-11T15:54:09;32.70;;;17.77;;
8871;SDS011;4472;52.092;9.820;2022-12-11T15:56:57;37.60;;;19.40;;
8871;SDS011;4472;52.092;9.820;2022-12-11T15:59:47;34.53;;;18.97;;
8871;SDS011;4472;52.092;9.820;2022-12-11T16:02:36;46.53;;;26.37;;
8871;SDS011;4472;52.092;9.820;2022-12-11T16:05:25;31.93;;;17.00;;
8871;SDS011;4472;52.092;9.820;2022-12-11T16:08:13;28.37;;;16.23;;
8871;SDS011;4472;52.092;9.820;2022-12-11T16:11:04;33.00;;;16.77;;
8871;SDS011;4472;52.092;9.820;2022-12-11T16:13:51;32.30;;;17.77;;
8871;SDS011;4472;52.092;9.820;2022-12-11T16:16:38;38.57;;;18.37;;
8871;SDS011;4472;52.092;9.820;2022-12-11T16:19:26;33.70;;;19.30;;
8871;SDS011;4472;52.092;9.820;2022-12-11T16:22:14;37.33;;;19.47;;
8871;SDS011;4472;52.092;9.820;2022-12-11T16:25:02;34.37;;;17.80;;
8871;SDS011;4472;52.092;9.820;2022-12-11T16:27:50;32.57;;;17.00;;
8871;SDS011;4472;52.092;9.820;2022-12-11T16:30:37;32.43;;;17.53;;
8871;SDS011;4472;52.092;9.820;2022-12-11T16:33:25;37.77;;;20.30;;
8871;SDS011;4472;52.092;9.820;2022-12-11T16:36:12;41.50;;;20.23;;
8871;SDS011;4472;52.092;9.820;2022-12-11T16:39:01;43.10;;;20.47;;
8871;SDS011;4472;52.092;9.820;2022-12-11T16:41:49;38.37;;;18.77;;
8871;SDS011;4472;52.092;9.820;2022-12-11T16:44:36;38.97;;;19.27;;
8871;SDS011;4472;52.092;9.820;2022-12-11T16:47:23;47.50;;;23.60;;
8871;SDS011;4472;52.092;9.820;2022-12-11T16:50:11;46.07;;;24.10;;
8871;SDS011;4472;52.092;9.820;2022-12-11T16:52:59;47.67;;;22.20;;
8871;SDS011;4472;52.092;9.820;2022-12-11T16:55:48;37.57;;;20.00;;
8871;SDS011;4472;52.092;9.820;2022-12-11T16:58:35;36.23;;;19.50;;
8871;SDS011;4472;52.092;9.820;2022-12-11T17:01:22;35.97;;;19.83;;
8871;SDS011;4472;52.092;9.820;2022-12-11T17:04:10;38.37;;;20.47;;
8871;SDS011;4472;52.092;9.820;2022-12-11T17:06:57;32.50;;;17.43;;
8871;SDS011;4472;52.092;9.820;2022-12-11T17:09:44;33.17;;;17.43;;
8871;SDS011;4472;52.092;9.820;2022-12-11T17:12:33;37.93;;;19.33;;